Time;durP1;ratioP1;P1;durP2;ratioP2;P2;SDS_P1;SDS_P2;PMS_P1;PMS_P2;Temp;Humidity;BMP_temperature;BMP_pressure;BME280_temperature;BME280_humidity;BME280_pressure;Samples;Min_cycle;Max_cycle;Signal;HPM_P1;HPM_P2
2023/08/15 00:00:18;;;;;;;;;;;;;;;27.72;38.76;100829.19;5095199;28;19916;-64
2023/08/15 00:02:44;;;;;;;;;;;;;;;27.74;38.50;100825.00;5094778;28;19924;-64
2023/08/15 00:05:09;;;;;;;;;;;;;;;27.76;38.70;100830.22;5094937;28;19912;-64
2023/08/15 00:07:34;;;;;;;;;;;;;;;27.72;38.58;100826.44;5094599;28;19912;-64
2023/08/15 00:10:00;;;;;;;;;;;;;;;27.71;38.70;100827.53;5094842;28;20374;-64
2023/08/15 00:12:25;;;;;;;;;;;;;;;27.72;38.63;100829.19;5095171;28;19912;-64
2023/08/15 00:14:52;;;;;;;;;;;;;;;27.73;38.66;100828.06;5095061;28;19959;-64
2023/08/15 00:17:17;;;;;;;;;;;;;;;27.74;38.76;100830.53;5094772;28;19957;-64
2023/08/15 00:19:43;;;;;;;;;;;;;;;27.59;38.55;100836.28;5094806;28;19920;-63
2023/08/15 00:22:08;;;;;;;;;;;;;;;27.53;38.68;100834.75;5074510;28;19916;-63
2023/08/15 00:24:33;;;;;;;;;;;;;;;27.44;39.00;100833.78;5074219;28;19919;-64
2023/08/15 00:26:59;;;;;;;;;;;;;;;27.47;38.98;100825.72;5074231;28;19918;-64
2023/08/15 00:29:24;;;;;;;;;;;;;;;27.49;38.76;100831.75;5074026;28;19964;-63
2023/08/15 00:31:49;;;;;;;;;;;;;;;27.53;38.68;100837.50;5074264;28;19916;-63
2023/08/15 00:34:15;;;;;;;;;;;;;;;27.54;39.10;100828.09;5073942;28;19917;-63
2023/08/15 00:36:41;;;;;;;;;;;;;;;27.55;39.12;100833.31;5074067;28;19919;-63
2023/08/15 00:39:06;;;;;;;;;;;;;;;27.56;38.61;100834.97;5074012;28;19916;-63
2023/08/15 00:41:31;;;;;;;;;;;;;;;27.52;38.98;100828.38;5074238;28;19955;-63
2023/08/15 00:43:58;;;;;;;;;;;;;;;27.58;38.86;100821.69;5074330;28;19913;-63
2023/08/15 00:46:24;;;;;;;;;;;;;;;27.58;38.93;100823.59;5074011;28;19935;-63
2023/08/15 00:48:49;;;;;;;;;;;;;;;27.61;38.80;100823.81;5074180;28;19916;-63
2023/08/15 00:51:16;;;;;;;;;;;;;;;27.64;38.94;100824.34;5074378;28;19912;-63
2023/08/15 00:53:42;;;;;;;;;;;;;;;27.64;38.94;100816.06;5073498;28;19923;-64
2023/08/15 00:56:08;;;;;;;;;;;;;;;27.57;38.99;100809.00;5072989;28;20367;-64
2023/08/15 00:58:34;;;;;;;;;;;;;;;27.50;38.99;100818.78;5072987;28;19999;-64
2023/08/15 01:00:59;;;;;;;;;;;;;;;27.54;39.05;100815.09;5055305;28;19919;-64
2023/08/15 01:03:24;;;;;;;;;;;;;;;27.65;38.90;100806.69;5092105;28;20433;-64
2023/08/15 01:05:50;;;;;;;;;;;;;;;27.65;38.85;100807.50;5075690;28;20015;-63
2023/08/15 01:08:15;;;;;;;;;;;;;;;27.66;38.67;100813.84;5093818;28;19955;-64
2023/08/15 01:10:47;;;;;;;;;;;;;;;27.70;38.84;100810.16;5094077;28;20379;-64
2023/08/15 01:13:12;;;;;;;;;;;;;;;27.70;38.84;100818.44;5093884;28;19991;-64
2023/08/15 01:15:39;;;;;;;;;;;;;;;27.73;38.54;100817.88;5093720;28;19912;-64
2023/08/15 01:18:25;;;;;;;;;;;;;;;27.71;38.50;100816.50;5093653;28;19912;-64
2023/08/15 01:20:50;;;;;;;;;;;;;;;27.69;38.93;100813.22;5075742;28;19912;-63
2023/08/15 01:23:20;;;;;;;;;;;;;;;27.67;38.87;100809.94;5093842;28;19912;-64
2023/08/15 01:25:48;;;;;;;;;;;;;;;27.68;38.65;100806.09;5093780;28;20348;-64
2023/08/15 01:28:14;;;;;;;;;;;;;;;27.63;38.45;100811.69;5093236;28;19948;-64
2023/08/15 01:30:57;;;;;;;;;;;;;;;27.64;38.73;100808.63;5093121;28;19912;-64
2023/08/15 01:33:28;;;;;;;;;;;;;;;27.66;38.89;100802.81;5093472;28;19912;-64
2023/08/15 01:36:01;;;;;;;;;;;;;;;27.70;38.54;100798.31;5093406;28;19912;-64
2023/08/15 01:38:47;;;;;;;;;;;;;;;27.74;38.71;100802.13;5093226;28;19920;-64
2023/08/15 01:41:14;;;;;;;;;;;;;;;27.73;38.44;100805.97;5092279;28;19915;-64
2023/08/15 01:43:41;;;;;;;;;;;;;;;27.77;38.57;100807.03;5093475;28;19965;-64
2023/08/15 01:46:07;;;;;;;;;;;;;;;27.80;38.52;100804.50;5092954;28;20303;-64
2023/08/15 01:48:37;;;;;;;;;;;;;;;27.82;38.54;100806.94;5093267;28;19990;-64
2023/08/15 01:51:02;;;;;;;;;;;;;;;27.80;38.74;100811.94;5084532;28;19924;-64
2023/08/15 01:53:27;;;;;;;;;;;;;;;27.77;38.68;100820.84;5073217;28;19912;-64
2023/08/15 01:55:53;;;;;;;;;;;;;;;27.76;38.86;100811.72;5072010;28;19942;-64
2023/08/15 01:58:18;;;;;;;;;;;;;;;27.79;38.85;100810.31;5072334;28;19916;-63
2023/08/15 02:00:45;;;;;;;;;;;;;;;27.83;38.53;100816.88;5072629;28;19948;-63
2023/08/15 02:03:10;;;;;;;;;;;;;;;27.83;38.72;100813.28;5089169;28;19982;-64
2023/08/15 02:05:36;;;;;;;;;;;;;;;27.85;38.56;100811.06;5079503;28;19920;-63
2023/08/15 02:08:01;;;;;;;;;;;;;;;27.83;38.44;100808.59;5072776;28;19999;-63
2023/08/15 02:10:27;;;;;;;;;;;;;;;27.89;38.21;100807.41;5073705;28;20025;-63
2023/08/15 02:12:52;;;;;;;;;;;;;;;27.91;38.14;100810.69;5079449;28;20283;-63
2023/08/15 02:15:24;;;;;;;;;;;;;;;27.91;38.35;100807.91;5079666;28;19916;-63
2023/08/15 02:17:50;;;;;;;;;;;;;;;27.92;38.45;100817.84;5079296;28;20455;-64
2023/08/15 02:20:21;;;;;;;;;;;;;;;27.93;38.13;100813.94;5079288;28;19912;-64
2023/08/15 02:22:47;;;;;;;;;;;;;;;27.91;38.19;100815.38;5079578;28;19958;-64
2023/08/15 02:25:12;;;;;;;;;;;;;;;27.86;38.26;100801.63;5079151;28;20308;-64
2023/08/15 02:27:37;;;;;;;;;;;;;;;27.86;38.60;100801.63;5079232;28;19916;-64
2023/08/15 02:30:04;;;;;;;;;;;;;;;27.82;38.23;100798.66;5079322;28;19923;-63
2023/08/15 02:32:29;;;;;;;;;;;;;;;27.80;38.38;100800.91;5079280;28;19912;-63
2023/08/15 02:34:55;;;;;;;;;;;;;;;27.78;38.70;100803.16;5079231;28;20384;-63
2023/08/15 02:37:21;;;;;;;;;;;;;;;27.83;38.72;100807.78;5079060;28;20313;-63
2023/08/15 02:39:46;;;;;;;;;;;;;;;27.84;38.50;100807.47;5079264;28;19919;-63
2023/08/15 02:42:11;;;;;;;;;;;;;;;27.83;38.65;100803.06;5078692;28;19924;-63
2023/08/15 02:44:36;;;;;;;;;;;;;;;27.84;38.34;100799.19;5079085;28;20676;-63
2023/08/15 02:47:02;;;;;;;;;;;;;;;27.81;38.67;100797.03;5078243;28;20007;-63
2023/08/15 02:49:27;;;;;;;;;;;;;;;27.76;38.92;100797.09;5078533;28;19928;-63
2023/08/15 02:51:53;;;;;;;;;;;;;;;27.69;39.11;100789.22;5078728;28;20415;-64
2023/08/15 02:54:18;;;;;;;;;;;;;;;27.69;38.92;100803.03;5077817;28;20006;-64
2023/08/15 02:56:43;;;;;;;;;;;;;;;27.73;38.72;100800.47;5078712;28;19917;-64
2023/08/15 02:59:08;;;;;;;;;;;;;;;27.74;38.73;100797.41;5078582;28;19912;-63
2023/08/15 03:01:34;;;;;;;;;;;;;;;27.71;38.87;100799.94;5082164;28;19961;-64
2023/08/15 03:03:59;;;;;;;;;;;;;;;27.70;38.93;100793.63;5098732;28;20339;-64
2023/08/15 03:06:25;;;;;;;;;;;;;;;27.69;38.63;100789.22;5098762;28;19912;-64
2023/08/15 03:08:50;;;;;;;;;;;;;;;27.70;38.94;100792.81;5098794;28;19966;-63
2023/08/15 03:11:15;;;;;;;;;;;;;;;27.67;38.62;100790.63;5099243;28;19918;-63
2023/08/15 03:13:41;;;;;;;;;;;;;;;27.69;38.75;100802.19;5099084;28;19986;-64
2023/08/15 03:16:06;;;;;;;;;;;;;;;27.71;38.74;100805.47;5099106;28;19916;-64
2023/08/15 03:18:31;;;;;;;;;;;;;;;27.71;38.81;100800.78;5099205;28;19916;-64
2023/08/15 03:20:57;;;;;;;;;;;;;;;27.74;38.71;100793.84;5099090;28;19919;-64
2023/08/15 03:23:22;;;;;;;;;;;;;;;27.77;38.75;100788.53;5096015;28;20292;-64
2023/08/15 03:25:55;;;;;;;;;;;;;;;27.78;38.50;100781.88;5095998;28;20305;-64
2023/08/15 03:28:20;;;;;;;;;;;;;;;27.72;38.66;100779.53;5095728;28;19994;-64
2023/08/15 03:30:45;;;;;;;;;;;;;;;27.71;38.74;100775.94;5095723;28;20010;-63
2023/08/15 03:33:10;;;;;;;;;;;;;;;27.70;38.78;100765.22;5077511;28;20249;-64
2023/08/15 03:35:36;;;;;;;;;;;;;;;27.68;38.86;100759.97;5095856;28;19942;-63
2023/08/15 03:38:01;;;;;;;;;;;;;;;27.73;38.63;100753.53;5077641;28;19916;-63
2023/08/15 03:40:26;;;;;;;;;;;;;;;27.68;38.76;100759.19;5095452;28;19994;-64
2023/08/15 03:42:52;;;;;;;;;;;;;;;27.66;38.90;100773.28;5092174;28;19955;-64
2023/08/15 03:45:17;;;;;;;;;;;;;;;27.65;38.74;100779.91;5075150;28;20371;-64
2023/08/15 03:47:45;;;;;;;;;;;;;;;27.69;38.63;100785.63;5075152;28;20506;-64
2023/08/15 03:50:10;;;;;;;;;;;;;;;27.66;38.83;100789.81;5074927;28;19924;-64
2023/08/15 03:52:35;;;;;;;;;;;;;;;27.70;38.92;100779.81;5074933;28;19916;-64
2023/08/15 03:55:01;;;;;;;;;;;;;;;27.75;38.92;100776.16;5074308;28;20404;-64
2023/08/15 03:57:26;;;;;;;;;;;;;;;27.76;39.00;100780.56;5075146;28;19912;-64
2023/08/15 03:59:51;;;;;;;;;;;;;;;27.81;38.82;100788.75;5074697;28;20293;-64
2023/08/15 04:02:17;;;;;;;;;;;;;;;27.79;38.75;100799.28;5066540;28;19912;-64
2023/08/15 04:04:42;;;;;;;;;;;;;;;27.77;38.86;100801.53;5094875;28;19927;-63
2023/08/15 04:07:07;;;;;;;;;;;;;;;27.77;38.34;100809.81;5083701;28;19935;-63
2023/08/15 04:09:33;;;;;;;;;;;;;;;27.77;38.68;100805.09;5074695;28;19916;-63
2023/08/15 04:11:58;;;;;;;;;;;;;;;27.80;38.57;100798.97;5074469;28;19919;-64
2023/08/15 04:14:23;;;;;;;;;;;;;;;27.77;38.80;100783.00;5056451;28;19934;-64
2023/08/15 04:16:48;;;;;;;;;;;;;;;27.81;38.52;100786.00;5074668;28;19912;-63
2023/08/15 04:19:14;;;;;;;;;;;;;;;27.84;38.54;100790.91;5074836;28;19912;-63
2023/08/15 04:21:40;;;;;;;;;;;;;;;27.81;38.56;100794.28;5074693;28;20269;-63
2023/08/15 04:24:05;;;;;;;;;;;;;;;27.82;38.73;100793.13;5074343;28;19934;-64
2023/08/15 04:26:30;;;;;;;;;;;;;;;27.81;38.73;100786.00;5074424;28;19982;-64
2023/08/15 04:28:56;;;;;;;;;;;;;;;27.86;38.60;100782.31;5074149;28;19917;-64
2023/08/15 04:31:21;;;;;;;;;;;;;;;27.85;38.62;100769.66;5074282;28;20277;-64
2023/08/15 04:33:46;;;;;;;;;;;;;;;27.87;38.67;100781.19;5073665;28;19948;-64
2023/08/15 04:36:11;;;;;;;;;;;;;;;27.92;38.79;100781.97;5073873;28;19916;-64
2023/08/15 04:38:37;;;;;;;;;;;;;;;27.98;38.64;100785.44;5074120;28;20321;-64
2023/08/15 04:41:04;;;;;;;;;;;;;;;27.98;38.60;100788.22;5074077;28;19917;-64
2023/08/15 04:43:29;;;;;;;;;;;;;;;27.99;38.53;100789.88;5074087;28;19958;-64
2023/08/15 04:45:54;;;;;;;;;;;;;;;28.02;38.53;100802.22;5074007;28;19920;-64
2023/08/15 04:48:20;;;;;;;;;;;;;;;28.02;38.61;100803.03;5073704;28;19991;-64
2023/08/15 04:50:45;;;;;;;;;;;;;;;28.08;38.56;100801.00;5073943;28;19916;-64
2023/08/15 04:53:10;;;;;;;;;;;;;;;28.08;38.67;100788.03;5074050;28;19913;-64
2023/08/15 04:55:35;;;;;;;;;;;;;;;28.09;38.60;100766.75;5073487;28;19919;-64
2023/08/15 04:58:02;;;;;;;;;;;;;;;28.07;38.59;100763.50;5074103;28;19920;-64
2023/08/15 05:00:28;;;;;;;;;;;;;;;28.09;38.83;100766.75;5073472;28;20357;-64
2023/08/15 05:02:53;;;;;;;;;;;;;;;28.13;38.39;100759.50;5087528;28;19920;-64
2023/08/15 05:05:18;;;;;;;;;;;;;;;28.18;38.54;100774.03;5093879;28;19927;-64
2023/08/15 05:07:44;;;;;;;;;;;;;;;28.23;38.29;100772.28;5093922;28;20400;-64
2023/08/15 05:10:09;;;;;;;;;;;;;;;28.27;38.26;100790.72;5093827;28;20399;-64
2023/08/15 05:12:34;;;;;;;;;;;;;;;28.29;38.37;100785.72;5093867;28;19951;-64
2023/08/15 05:15:00;;;;;;;;;;;;;;;28.34;38.24;100784.78;5088955;28;20347;-64
2023/08/15 05:17:26;;;;;;;;;;;;;;;28.35;38.26;100787.25;5073386;28;19919;-64
2023/08/15 05:19:51;;;;;;;;;;;;;;;28.39;38.27;100779.16;5073057;28;19916;-64
2023/08/15 05:22:16;;;;;;;;;;;;;;;28.40;38.27;100783.59;5073282;28;19912;-64
2023/08/15 05:24:41;;;;;;;;;;;;;;;28.38;38.26;100783.06;5072686;28;19920;-64
2023/08/15 05:27:11;;;;;;;;;;;;;;;28.32;38.32;100787.84;5072980;28;19916;-64
2023/08/15 05:29:36;;;;;;;;;;;;;;;28.28;38.04;100786.81;5073075;28;20586;-64
2023/08/15 05:32:04;;;;;;;;;;;;;;;28.28;37.99;100781.31;5073061;28;19919;-64
2023/08/15 05:34:29;;;;;;;;;;;;;;;28.34;38.31;100769.03;5072975;28;19912;-64
2023/08/15 05:36:55;;;;;;;;;;;;;;;28.27;38.22;100776.06;5072913;28;19923;-64
2023/08/15 05:39:20;;;;;;;;;;;;;;;28.19;38.26;100780.38;5071871;28;19939;-63
2023/08/15 05:41:45;;;;;;;;;;;;;;;28.19;37.97;100783.13;5073123;28;20277;-63
2023/08/15 05:44:11;;;;;;;;;;;;;;;28.12;38.26;100791.84;5073051;28;19917;-63
2023/08/15 05:46:36;;;;;;;;;;;;;;;28.12;38.18;100797.34;5072359;28;20375;-63
2023/08/15 05:49:01;;;;;;;;;;;;;;;28.12;38.15;100804.78;5072448;28;19921;-63
2023/08/15 05:51:26;;;;;;;;;;;;;;;28.02;38.60;100803.03;5072559;28;20590;-63
2023/08/15 05:53:52;;;;;;;;;;;;;;;27.98;38.29;100810.28;5072132;28;19963;-63
2023/08/15 05:56:17;;;;;;;;;;;;;;;27.97;38.49;100815.00;5072521;28;19913;-63
2023/08/15 05:58:42;;;;;;;;;;;;;;;27.94;38.44;100795.47;5072693;28;19912;-63
2023/08/15 06:01:08;;;;;;;;;;;;;;;27.91;38.75;100788.59;5071554;28;19931;-63
2023/08/15 06:03:33;;;;;;;;;;;;;;;27.98;38.61;100797.31;5092603;28;19980;-64
2023/08/15 06:05:58;;;;;;;;;;;;;;;28.06;38.89;100781.16;5093114;28;19912;-64
2023/08/15 06:08:24;;;;;;;;;;;;;;;28.09;39.02;100781.38;5093124;28;19919;-64
2023/08/15 06:10:49;;;;;;;;;;;;;;;28.11;38.85;100781.91;5092924;28;20307;-64
2023/08/15 06:13:14;;;;;;;;;;;;;;;28.15;38.66;100787.63;5093028;28;20349;-64
2023/08/15 06:15:39;;;;;;;;;;;;;;;28.15;38.82;100779.34;5093300;28;19912;-64
2023/08/15 06:18:05;;;;;;;;;;;;;;;28.22;39.04;100776.19;5092805;28;20368;-64
2023/08/15 06:20:32;;;;;;;;;;;;;;;28.23;38.63;100783.34;5092791;28;19916;-64
2023/08/15 06:22:57;;;;;;;;;;;;;;;28.37;39.21;100784.19;5093581;28;19916;-64
2023/08/15 06:25:22;;;;;;;;;;;;;;;28.39;38.83;100792.97;5085789;28;19917;-64
2023/08/15 06:27:48;;;;;;;;;;;;;;;28.47;39.13;100783.16;5072485;28;19935;-64
2023/08/15 06:30:13;;;;;;;;;;;;;;;28.53;39.07;100793.03;5072608;28;19924;-64
2023/08/15 06:32:38;;;;;;;;;;;;;;;28.57;38.73;100791.28;5072399;28;19917;-64
2023/08/15 06:35:05;;;;;;;;;;;;;;;28.63;38.73;100795.56;5072472;28;19916;-64
2023/08/15 06:37:34;;;;;;;;;;;;;;;28.64;38.85;100801.91;5072547;28;19912;-64
2023/08/15 06:40:01;;;;;;;;;;;;;;;28.63;38.58;100800.28;5073010;28;20052;-64
2023/08/15 06:42:27;;;;;;;;;;;;;;;28.66;38.77;100807.94;5072336;28;19948;-64
2023/08/15 06:45:13;;;;;;;;;;;;;;;28.49;38.35;100816.81;5072728;28;19920;-64
2023/08/15 06:47:39;;;;;;;;;;;;;;;28.49;38.61;100809.38;5072315;28;19913;-64
2023/08/15 06:50:05;;;;;;;;;;;;;;;28.56;38.72;100803.44;5072048;28;19924;-64
2023/08/15 06:52:38;;;;;;;;;;;;;;;28.59;38.23;100808.38;5072408;28;20010;-64
2023/08/15 06:55:03;;;;;;;;;;;;;;;28.58;38.70;100809.50;5071575;28;20249;-64
2023/08/15 06:57:30;;;;;;;;;;;;;;;28.66;38.30;100802.41;5072645;28;20380;-63
2023/08/15 06:59:56;;;;;;;;;;;;;;;28.77;38.43;100792.81;5075981;28;20014;-64
2023/08/15 07:02:21;;;;;;;;;;;;;;;28.84;38.40;100770.28;5085959;28;19991;-64
2023/08/15 07:04:48;;;;;;;;;;;;;;;28.90;38.85;100760.72;5096604;28;19918;-63
2023/08/15 07:07:14;;;;;;;;;;;;;;;29.00;38.78;100777.09;5096232;28;19912;-64
2023/08/15 07:09:39;;;;;;;;;;;;;;;29.08;38.66;100772.78;5093447;28;19965;-64
2023/08/15 07:12:05;;;;;;;;;;;;;;;29.09;38.48;100771.66;5075777;28;20350;-64
2023/08/15 07:14:33;;;;;;;;;;;;;;;29.11;38.83;100767.44;5073531;28;19927;-64
2023/08/15 07:16:59;;;;;;;;;;;;;;;29.14;38.87;100769.63;5075725;28;19916;-63
2023/08/15 07:19:24;;;;;;;;;;;;;;;29.25;38.88;100777.69;5075390;28;20353;-64
2023/08/15 07:21:50;;;;;;;;;;;;;;;29.26;38.35;100799.50;5075299;28;19912;-64
2023/08/15 07:24:17;;;;;;;;;;;;;;;29.31;38.47;100793.88;5075331;28;19995;-63
2023/08/15 07:26:42;;;;;;;;;;;;;;;29.39;38.67;100800.59;5075042;28;19925;-63
2023/08/15 07:29:07;;;;;;;;;;;;;;;29.46;38.43;100794.66;5075022;28;19920;-63
2023/08/15 07:31:33;;;;;;;;;;;;;;;29.56;38.40;100790.81;5075131;28;19926;-64
2023/08/15 07:33:58;;;;;;;;;;;;;;;29.64;37.58;100801.09;5075222;28;19998;-63
2023/08/15 07:36:23;;;;;;;;;;;;;;;29.64;38.30;100813.03;5075155;28;19912;-64
2023/08/15 07:38:48;;;;;;;;;;;;;;;29.68;37.91;100814.03;5075620;28;20360;-64
2023/08/15 07:41:14;;;;;;;;;;;;;;;29.68;37.61;100816.78;5075270;28;20411;-64
2023/08/15 07:43:39;;;;;;;;;;;;;;;29.72;37.68;100822.53;5074818;28;19916;-63
2023/08/15 07:46:04;;;;;;;;;;;;;;;29.79;37.52;100817.41;5074355;28;19958;-63
2023/08/15 07:48:29;;;;;;;;;;;;;;;29.84;37.54;100816.44;5073738;28;19913;-63
2023/08/15 07:50:56;;;;;;;;;;;;;;;29.91;37.84;100816.81;5073700;28;20018;-63
2023/08/15 07:53:22;;;;;;;;;;;;;;;30.01;37.98;100813.75;5073593;28;19913;-63
2023/08/15 07:55:48;;;;;;;;;;;;;;;30.10;37.47;100816.59;5073073;28;19919;-63
2023/08/15 07:58:13;;;;;;;;;;;;;;;30.23;37.78;100821.22;5073827;28;20292;-63
2023/08/15 08:00:38;;;;;;;;;;;;;;;30.31;37.10;100830.72;5074062;28;19957;-63
2023/08/15 08:03:04;;;;;;;;;;;;;;;30.35;37.27;100822.63;5090450;28;19920;-62
2023/08/15 08:05:29;;;;;;;;;;;;;;;30.46;36.87;100819.25;5077143;28;19923;-62
2023/08/15 08:07:55;;;;;;;;;;;;;;;30.54;36.35;100823.22;5094971;28;19912;-62
2023/08/15 08:10:20;;;;;;;;;;;;;;;30.77;36.38;100831.44;5094582;28;19927;-62
2023/08/15 08:12:45;;;;;;;;;;;;;;;30.93;36.20;100829.88;5094943;28;19919;-61
2023/08/15 08:15:11;;;;;;;;;;;;;;;30.91;36.10;100839.69;5094736;28;20003;-62
2023/08/15 08:17:36;;;;;;;;;;;;;;;30.91;35.80;100831.34;5094830;28;19912;-63
2023/08/15 08:20:02;;;;;;;;;;;;;;;30.92;36.17;100841.28;5081577;28;19923;-63
2023/08/15 08:22:28;;;;;;;;;;;;;;;30.97;35.91;100839.19;5074795;28;20007;-63
2023/08/15 08:24:53;;;;;;;;;;;;;;;30.99;35.93;100836.09;5074283;28;20042;-62
2023/08/15 08:27:18;;;;;;;;;;;;;;;31.01;35.92;100828.25;5074484;28;19943;-62
2023/08/15 08:29:43;;;;;;;;;;;;;;;30.93;35.82;100835.44;5074259;28;19917;-63
2023/08/15 08:32:09;;;;;;;;;;;;;;;30.96;35.47;100836.72;5074307;28;19951;-63
2023/08/15 08:34:35;;;;;;;;;;;;;;;30.76;35.63;100829.78;5074432;28;19912;-63
2023/08/15 08:37:00;;;;;;;;;;;;;;;30.69;35.71;100844.94;5074101;28;19913;-63
2023/08/15 08:39:25;;;;;;;;;;;;;;;30.65;35.86;100849.50;5074578;28;19912;-62
2023/08/15 08:41:50;;;;;;;;;;;;;;;30.69;35.77;100838.59;5074363;28;19919;-62
2023/08/15 08:44:17;;;;;;;;;;;;;;;30.78;35.98;100838.63;5074006;28;20408;-63
2023/08/15 08:46:43;;;;;;;;;;;;;;;30.91;36.32;100823.84;5074199;28;20320;-63
2023/08/15 08:49:12;;;;;;;;;;;;;;;31.10;36.07;100820.78;5074168;28;20396;-63
2023/08/15 08:51:37;;;;;;;;;;;;;;;31.23;35.69;100825.34;5072733;28;19916;-62
2023/08/15 08:54:02;;;;;;;;;;;;;;;31.35;35.94;100823.91;5073481;28;20033;-63
2023/08/15 08:56:29;;;;;;;;;;;;;;;31.42;34.94;100815.91;5074199;28;20253;-63
2023/08/15 08:58:58;;;;;;;;;;;;;;;31.51;35.37;100818.72;5073880;28;19912;-63
2023/08/15 09:01:25;;;;;;;;;;;;;;;31.50;34.92;100822.63;5075933;28;20297;-63
2023/08/15 09:03:51;;;;;;;;;;;;;;;31.50;34.79;100817.91;5093699;28;19920;-63
2023/08/15 09:06:16;;;;;;;;;;;;;;;31.53;35.01;100820.00;5094078;28;20288;-63
2023/08/15 09:08:41;;;;;;;;;;;;;;;31.58;35.29;100813.50;5081747;28;19963;-61
2023/08/15 09:11:07;;;;;;;;;;;;;;;31.56;35.06;100815.78;5073842;28;19917;-63
2023/08/15 09:13:32;;;;;;;;;;;;;;;31.53;34.49;100827.53;5073314;28;19912;-63
2023/08/15 09:16:03;;;;;;;;;;;;;;;31.52;35.06;100821.19;5073586;28;19962;-63
2023/08/15 09:18:32;;;;;;;;;;;;;;;31.59;34.49;100815.13;5073597;28;19913;-63
2023/08/15 09:20:58;;;;;;;;;;;;;;;31.82;35.97;100815.75;5072421;28;19917;-63
2023/08/15 09:23:23;;;;;;;;;;;;;;;31.94;34.64;100815.06;5073329;28;20004;-63
2023/08/15 09:25:53;;;;;;;;;;;;;;;32.02;34.73;100797.56;5073346;28;19912;-63
2023/08/15 09:28:18;;;;;;;;;;;;;;;32.09;34.58;100809.00;5073230;28;19912;-63
2023/08/15 09:30:51;;;;;;;;;;;;;;;32.02;34.28;100809.53;5073180;28;19916;-63
2023/08/15 09:33:16;;;;;;;;;;;;;;;31.99;34.00;100810.16;5073263;28;20448;-63
2023/08/15 09:35:41;;;;;;;;;;;;;;;31.87;34.17;100798.09;5073169;28;19920;-62
2023/08/15 09:38:07;;;;;;;;;;;;;;;31.82;33.96;100799.91;5073118;28;19916;-63
2023/08/15 09:40:33;;;;;;;;;;;;;;;31.90;34.52;100795.47;5073099;28;20264;-63
2023/08/15 09:43:13;;;;;;;;;;;;;;;32.02;34.23;100783.66;5072979;28;20331;-63
2023/08/15 09:45:38;;;;;;;;;;;;;;;32.08;33.37;100787.13;5073135;28;20300;-63
2023/08/15 09:48:04;;;;;;;;;;;;;;;32.02;33.68;100797.56;5072675;28;19919;-63
2023/08/15 09:50:30;;;;;;;;;;;;;;;32.03;33.76;100802.00;5072587;28;20004;-62
2023/08/15 09:52:56;;;;;;;;;;;;;;;32.06;33.64;100800.53;5072883;28;20364;-62
2023/08/15 09:55:21;;;;;;;;;;;;;;;32.02;34.44;100795.66;5072220;28;19919;-61
2023/08/15 09:57:46;;;;;;;;;;;;;;;32.08;34.60;100799.06;5054976;28;19913;-62
2023/08/15 10:00:12;;;;;;;;;;;;;;;32.03;34.58;100790.91;5072793;28;20008;-62
2023/08/15 10:02:43;;;;;;;;;;;;;;;31.97;34.16;100781.09;5072300;28;20278;-62
2023/08/15 10:05:11;;;;;;;;;;;;;;;31.89;34.14;100781.91;5072902;28;19916;-62
2023/08/15 10:07:36;;;;;;;;;;;;;;;31.80;34.93;100777.19;5072771;28;20277;-62
2023/08/15 10:10:03;;;;;;;;;;;;;;;31.72;34.51;100775.22;5072374;28;19921;-62
2023/08/15 10:12:29;;;;;;;;;;;;;;;31.75;34.45;100782.91;5072542;28;19916;-62
2023/08/15 10:14:55;;;;;;;;;;;;;;;31.61;34.50;100777.56;5072443;28;19924;-61
2023/08/15 10:17:21;;;;;;;;;;;;;;;31.49;35.10;100755.19;5072395;28;19923;-61
2023/08/15 10:19:48;;;;;;;;;;;;;;;31.66;35.58;100781.31;5072755;28;19912;-61
2023/08/15 10:22:16;;;;;;;;;;;;;;;31.71;35.45;100767.25;5072587;28;20003;-61
2023/08/15 10:24:42;;;;;;;;;;;;;;;31.73;36.21;100763.00;5072491;28;20293;-61
2023/08/15 10:27:09;;;;;;;;;;;;;;;31.69;35.90;100753.69;5072517;28;19917;-60
2023/08/15 10:29:50;;;;;;;;;;;;;;;31.82;36.62;100754.66;5072460;28;19921;-62
2023/08/15 10:32:22;;;;;;;;;;;;;;;31.98;35.63;100754.91;5074467;28;19912;-62
2023/08/15 10:34:51;;;;;;;;;;;;;;;32.16;35.73;100753.75;5076647;28;19913;-62
2023/08/15 10:37:30;;;;;;;;;;;;;;;32.37;35.42;100751.06;5076894;28;19912;-62
2023/08/15 10:40:10;;;;;;;;;;;;;;;32.37;35.57;100745.50;5075297;28;19927;-61
2023/08/15 10:42:54;;;;;;;;;;;;;;;32.73;34.87;100744.16;5076894;28;19912;-62
2023/08/15 10:45:19;;;;;;;;;;;;;;;32.91;35.13;100741.25;5076474;28;19977;-62
2023/08/15 10:47:45;;;;;;;;;;;;;;;33.10;35.83;100724.91;5075140;28;20392;-62
2023/08/15 10:50:11;;;;;;;;;;;;;;;33.25;34.41;100723.50;5076123;28;19916;-62
2023/08/15 10:52:39;;;;;;;;;;;;;;;33.33;34.27;100710.66;5076292;28;19987;-62
2023/08/15 10:55:04;;;;;;;;;;;;;;;33.36;34.01;100707.19;5075478;28;20246;-62
2023/08/15 10:57:31;;;;;;;;;;;;;;;33.41;34.20;100703.34;5076042;28;19939;-63
2023/08/15 10:59:57;;;;;;;;;;;;;;;33.47;34.29;100693.63;5074726;28;19955;-62
2023/08/15 11:02:22;;;;;;;;;;;;;;;33.51;34.07;100694.59;5086129;28;19958;-63
2023/08/15 11:04:48;;;;;;;;;;;;;;;33.60;33.69;100700.88;5096270;28;19948;-63
2023/08/15 11:07:23;;;;;;;;;;;;;;;33.68;33.80;100699.97;5077862;28;19912;-63
2023/08/15 11:09:49;;;;;;;;;;;;;;;33.82;33.66;100694.06;5096071;28;19964;-63
2023/08/15 11:12:15;;;;;;;;;;;;;;;34.06;33.11;100692.47;5096266;28;20356;-63
2023/08/15 11:14:41;;;;;;;;;;;;;;;34.24;33.98;100698.66;5077441;28;19978;-63
2023/08/15 11:17:06;;;;;;;;;;;;;;;34.24;34.30;100693.91;5075828;28;19912;-63
2023/08/15 11:19:33;;;;;;;;;;;;;;;34.21;33.03;100688.22;5075944;28;19916;-63
2023/08/15 11:21:58;;;;;;;;;;;;;;;34.10;32.84;100696.19;5075507;28;20293;-63
2023/08/15 11:24:23;;;;;;;;;;;;;;;33.96;32.80;100701.31;5075470;28;19913;-63
2023/08/15 11:26:49;;;;;;;;;;;;;;;33.76;33.40;100695.47;5075196;28;20311;-63
2023/08/15 11:29:14;;;;;;;;;;;;;;;33.59;33.16;100690.88;5074289;28;19927;-63
2023/08/15 11:31:41;;;;;;;;;;;;;;;33.45;32.70;100693.16;5075361;28;19912;-63
2023/08/15 11:34:07;;;;;;;;;;;;;;;33.35;33.44;100692.44;5075383;28;19912;-63
2023/08/15 11:36:33;;;;;;;;;;;;;;;33.32;33.18;100693.13;5075199;28;19919;-63
2023/08/15 11:39:02;;;;;;;;;;;;;;;33.25;33.21;100690.09;5075167;28;19913;-63
2023/08/15 11:41:28;;;;;;;;;;;;;;;33.17;33.27;100697.38;5075408;28;19913;-63
2023/08/15 11:43:53;;;;;;;;;;;;;;;33.11;33.46;100692.31;5074357;28;19913;-62
2023/08/15 11:46:18;;;;;;;;;;;;;;;32.94;33.13;100684.94;5074919;28;19912;-62
2023/08/15 11:48:45;;;;;;;;;;;;;;;32.85;33.55;100684.19;5075337;28;19916;-62
2023/08/15 11:51:10;;;;;;;;;;;;;;;32.66;33.40;100684.66;5074530;28;19939;-62
2023/08/15 11:53:35;;;;;;;;;;;;;;;32.55;34.14;100671.09;5074975;28;20598;-62
2023/08/15 11:56:00;;;;;;;;;;;;;;;32.44;33.94;100685.75;5073673;28;19962;-63
2023/08/15 11:58:27;;;;;;;;;;;;;;;32.33;34.12;100693.66;5074845;28;19948;-62
2023/08/15 12:01:11;;;;;;;;;;;;;;;32.16;33.92;100692.59;5074939;28;19921;-62
2023/08/15 12:03:37;;;;;;;;;;;;;;;32.14;34.74;100686.56;5054380;28;20031;-62
2023/08/15 12:06:06;;;;;;;;;;;;;;;32.07;34.82;100677.94;5054614;28;19931;-62
2023/08/15 12:08:32;;;;;;;;;;;;;;;32.07;35.08;100669.59;5054419;28;20381;-62
2023/08/15 12:10:58;;;;;;;;;;;;;;;32.14;35.73;100674.63;5073170;28;19923;-62
2023/08/15 12:13:37;;;;;;;;;;;;;;;32.14;35.25;100675.44;5074468;28;19912;-62
2023/08/15 12:16:03;;;;;;;;;;;;;;;32.11;35.00;100680.84;5074683;28;19959;-62
2023/08/15 12:18:29;;;;;;;;;;;;;;;32.08;34.93;100679.56;5074595;28;19982;-62
2023/08/15 12:20:55;;;;;;;;;;;;;;;32.03;34.99;100676.97;5074530;28;20004;-62
2023/08/15 12:23:20;;;;;;;;;;;;;;;31.97;34.64;100681.88;5074384;28;19912;-62
2023/08/15 12:25:45;;;;;;;;;;;;;;;31.89;35.79;100679.97;5074355;28;20274;-62
2023/08/15 12:28:11;;;;;;;;;;;;;;;31.88;34.64;100683.88;5074420;28;19935;-63
2023/08/15 12:30:36;;;;;;;;;;;;;;;31.86;34.63;100682.59;5073961;28;19917;-62